Kezdőlap
METAR-TAF:

METAR-TAF

Repülőterek :

Arctic Bay, Nunavut, Kanada

földrajzi szélesség: 73-00-23N, földrajzi hosszúság: 085-02-50W, magasság: 22 m

Jelenlegi meteorológiai megfigyelések

A jelentés 1 órával és 0 perccel ezelõtt készült, 17:00 UTC
Szélcsend
Hőmérséklet -27°C
Páratartalom 62%
Légköri nyomás 1063 hPa
Látótávolság: 48.3 km
Derült ég

METAR: CYAB 011700Z CCA 00000KT 30SM SKC M27/M32 A3139 RMK SLP634

Idő: 14:00 (18:00 UTC)

Előrejelzés

A jelentés 5 órával és 22 perccel ezelõtt készült, 12:38 UTC
Az előrejelzés 01-én 13 óra UTC és 01-én 20 óra UTC között érvényes
Különbözõ irányokból fújó szél 3 kt
Látótávolság: 10 km
Derült ég

TAF: CYAB 011238Z 0113/0120 VRB03KT P6SM SKC RMK NXT FCST WILL BE ISSUED AT 021245Z

Meteorológiai megfigyelések és előrejelzések több, mint 4000 repülőtéren (METAR és TAF jelentéseket).

A térképen piros és sárga pontok jelzik az elérhető meteorológiai állomásokat.

Mozgassa az egeret a pont fölött, hogy megjelenjen az állomás neve.

Azután kattintson az időjárási megfigyelések és előrejelzések megtekintéséhez.

A térkép megváltoztatása: kattintson a fekete keresztel jelölt zöld gombra ráközelítéshez, a vonallal jelölt zöld gombra távolításhoz, vagy a zöld nyilakra a szomszédos térképek eléréséhez.


METAR-TAF: